Time;durP1;ratioP1;P1;durP2;ratioP2;P2;SDS_P1;SDS_P2;PMS_P1;PMS_P2;Temp;Humidity;BMP_temperature;BMP_pressure;BME280_temperature;BME280_humidity;BME280_pressure;Samples;Min_cycle;Max_cycle;Signal;HPM_P1;HPM_P2
2022/09/14 00:00:02;;;;;;;6.13;5.03;;;21.30;42.80;;;;;;10566561;28;20253;-81
2022/09/14 00:05:07;;;;;;;5.27;4.90;;;21.30;42.80;;;;;;10553661;28;20227;-81
2022/09/14 00:10:10;;;;;;;5.20;4.80;;;21.20;43.40;;;;;;10551382;28;20219;-81
2022/09/14 00:15:14;;;;;;;5.60;5.10;;;21.20;43.20;;;;;;10567690;28;20230;-81
2022/09/14 00:20:18;;;;;;;5.27;4.90;;;21.20;43.40;;;;;;10564859;28;20284;-80
2022/09/14 00:25:21;;;;;;;4.57;4.27;;;21.20;43.80;;;;;;10567021;28;20239;-80
2022/09/14 00:30:25;;;;;;;5.60;5.10;;;21.20;43.40;;;;;;10565520;28;20595;-80
2022/09/14 00:35:29;;;;;;;5.73;5.23;;;21.20;43.40;;;;;;10560836;28;20235;-80
2022/09/14 00:40:32;;;;;;;6.20;5.60;;;21.20;43.90;;;;;;10558718;28;20249;-80
2022/09/14 00:45:35;;;;;;;5.67;5.27;;;21.10;43.40;;;;;;10566977;28;20231;-80
2022/09/14 00:50:40;;;;;;;5.07;4.60;;;21.10;43.50;;;;;;10568535;28;20230;-80
2022/09/14 00:55:43;;;;;;;5.50;5.10;;;21.00;44.00;;;;;;10566929;28;20226;-80
2022/09/14 01:00:46;;;;;;;5.30;4.90;;;21.00;43.90;;;;;;10569465;28;20262;-80
2022/09/14 01:06:03;;;;;;;6.03;5.53;;;21.00;43.90;;;;;;10570947;28;20322;-80
2022/09/14 01:11:28;;;;;;;5.50;5.00;;;21.00;44.80;;;;;;10564272;28;20602;-80
2022/09/14 01:16:37;;;;;;;5.20;4.80;;;21.00;44.70;;;;;;10573777;28;20639;-80
2022/09/14 01:21:44;;;;;;;4.97;4.67;;;21.10;44.80;;;;;;10567273;28;20368;-82
2022/09/14 01:27:15;;;;;;;5.57;5.17;;;21.10;44.60;;;;;;10570534;27;20231;-80
2022/09/14 01:32:22;;;;;;;4.30;4.00;;;21.10;44.70;;;;;;10566462;28;20226;-80
2022/09/14 01:37:29;;;;;;;5.30;4.90;;;21.10;44.40;;;;;;10572715;28;20239;-80
2022/09/14 01:42:35;;;;;;;5.23;4.60;;;21.10;44.60;;;;;;10574523;28;20275;-80
2022/09/14 01:47:42;;;;;;;5.40;4.90;;;21.10;44.70;;;;;;10571710;28;20231;-80
2022/09/14 01:52:48;;;;;;;5.07;4.67;;;21.10;44.70;;;;;;10564691;27;20226;-80
2022/09/14 01:57:57;;;;;;;4.40;4.00;;;21.10;45.20;;;;;;10570047;28;20318;-80
2022/09/14 02:03:07;;;;;;;5.13;4.73;;;21.10;44.70;;;;;;10566248;28;20223;-80
2022/09/14 02:08:10;;;;;;;4.70;4.40;;;21.10;45.10;;;;;;10567224;28;20811;-80
2022/09/14 02:13:14;;;;;;;5.00;4.47;;;21.10;44.10;;;;;;10567180;28;20231;-80
2022/09/14 02:18:18;;;;;;;4.47;4.10;;;21.00;44.40;;;;;;10564949;28;20230;-80
2022/09/14 02:23:22;;;;;;;5.73;5.33;;;21.00;44.10;;;;;;10561000;28;20271;-81
2022/09/14 02:28:26;;;;;;;5.30;4.90;;;21.00;44.50;;;;;;10570834;28;20237;-81
2022/09/14 02:33:37;;;;;;;5.37;4.67;;;20.90;44.90;;;;;;10569853;28;20305;-80
2022/09/14 02:38:45;;;;;;;5.53;5.10;;;20.80;45.40;;;;;;10557004;28;20237;-80
2022/09/14 02:43:55;;;;;;;6.00;4.60;;;20.70;45.30;;;;;;10565758;28;20309;-80
2022/09/14 02:49:06;;;;;;;5.10;4.60;;;20.70;45.50;;;;;;10567060;27;20917;-80
2022/09/14 02:54:14;;;;;;;5.73;5.23;;;20.80;46.30;;;;;;10566919;28;20230;-80
2022/09/14 02:59:19;;;;;;;5.03;4.73;;;20.80;45.80;;;;;;10564209;28;20246;-80
2022/09/14 03:04:22;;;;;;;5.53;5.00;;;20.80;45.40;;;;;;10568877;27;20239;-81
2022/09/14 03:09:26;;;;;;;5.70;4.90;;;20.80;44.90;;;;;;10566861;28;20227;-80
2022/09/14 03:14:30;;;;;;;5.10;4.70;;;20.80;44.90;;;;;;10562723;28;20234;-80
2022/09/14 03:19:33;;;;;;;5.17;4.57;;;20.70;45.40;;;;;;10564523;28;20230;-80
2022/09/14 03:24:36;;;;;;;5.57;5.07;;;20.70;45.20;;;;;;10568404;28;20234;-80
2022/09/14 03:29:41;;;;;;;6.63;5.00;;;20.70;45.40;;;;;;10560153;28;20691;-80
2022/09/14 03:34:44;;;;;;;5.90;5.40;;;20.60;46.20;;;;;;10571248;27;20632;-81
2022/09/14 03:39:47;;;;;;;5.47;4.87;;;20.60;45.90;;;;;;10564151;28;20216;-80
2022/09/14 03:44:52;;;;;;;10.43;5.23;;;20.50;46.20;;;;;;10564604;28;20314;-83
2022/09/14 03:49:55;;;;;;;5.13;4.63;;;20.50;47.10;;;;;;10562572;28;20647;-80
2022/09/14 03:54:58;;;;;;;4.57;4.27;;;20.50;47.20;;;;;;10560999;28;20227;-81
2022/09/14 04:00:06;;;;;;;5.33;4.80;;;20.50;46.50;;;;;;10560348;28;20219;-81
2022/09/14 04:05:09;;;;;;;5.43;4.93;;;20.50;47.80;;;;;;10559402;28;20223;-81
2022/09/14 04:10:12;;;;;;;6.77;5.23;;;20.50;46.90;;;;;;10559893;28;20233;-81
2022/09/14 04:15:17;;;;;;;6.00;4.77;;;20.50;47.10;;;;;;10562432;28;20226;-81
2022/09/14 04:20:20;;;;;;;5.63;4.93;;;20.50;47.60;;;;;;10564913;28;20219;-82
2022/09/14 04:25:23;;;;;;;5.43;4.93;;;20.60;47.10;;;;;;10570338;28;20230;-82
2022/09/14 04:30:28;;;;;;;5.73;5.10;;;20.60;47.20;;;;;;10567316;28;20226;-80
2022/09/14 04:35:31;;;;;;;6.17;5.67;;;20.60;47.80;;;;;;10573464;28;20230;-80
2022/09/14 04:40:34;;;;;;;6.07;5.57;;;20.60;47.40;;;;;;10568871;28;20227;-80
2022/09/14 04:45:39;;;;;;;5.80;5.30;;;20.50;47.40;;;;;;10574900;28;20711;-80
2022/09/14 04:50:43;;;;;;;6.40;5.90;;;20.50;48.20;;;;;;10571110;28;20252;-80
2022/09/14 04:55:46;;;;;;;6.10;5.60;;;20.50;47.60;;;;;;10566556;28;20231;-82
2022/09/14 05:00:51;;;;;;;5.70;5.20;;;20.50;47.80;;;;;;10569842;28;20220;-79
2022/09/14 05:05:54;;;;;;;5.40;5.00;;;20.60;49.00;;;;;;10577958;28;20254;-78
2022/09/14 05:10:57;;;;;;;6.30;5.80;;;20.60;48.00;;;;;;10571626;28;20284;-77
2022/09/14 05:16:10;;;;;;;5.53;5.10;;;20.60;48.00;;;;;;10564828;28;20227;-77
2022/09/14 05:21:15;;;;;;;5.70;5.30;;;20.60;49.30;;;;;;10559275;28;20219;-76
2022/09/14 05:26:18;;;;;;;6.57;5.97;;;20.60;48.60;;;;;;10570644;28;20283;-78
2022/09/14 05:31:24;;;;;;;6.43;5.80;;;20.60;48.10;;;;;;10573608;28;20242;-78
2022/09/14 05:36:27;;;;;;;5.77;5.37;;;20.60;49.30;;;;;;10575297;27;20235;-78
2022/09/14 05:41:30;;;;;;;7.20;6.60;;;20.50;48.30;;;;;;10575900;28;20905;-78
2022/09/14 05:46:35;;;;;;;6.90;6.30;;;20.50;48.60;;;;;;10576256;28;20238;-78
2022/09/14 05:51:38;;;;;;;7.17;6.47;;;20.50;49.20;;;;;;10574090;28;20218;-77
2022/09/14 05:56:41;;;;;;;7.33;6.63;;;20.50;49.00;;;;;;10557042;28;20382;-77
2022/09/14 06:01:45;;;;;;;7.10;6.50;;;20.40;49.10;;;;;;10564064;28;20227;-76
2022/09/14 06:06:49;;;;;;;6.90;6.20;;;20.50;49.60;;;;;;10561134;28;20314;-77
2022/09/14 06:12:13;;;;;;;6.43;5.93;;;20.50;49.20;;;;;;10565100;28;20231;-79
2022/09/14 06:17:17;;;;;;;7.10;6.60;;;20.50;49.20;;;;;;10557094;28;20223;-77
2022/09/14 06:22:21;;;;;;;7.20;6.43;;;20.50;49.80;;;;;;10559522;28;20215;-77
2022/09/14 06:27:24;;;;;;;7.13;6.63;;;20.60;49.30;;;;;;10561528;28;21029;-77
2022/09/14 06:32:30;;;;;;;6.83;6.23;;;20.60;49.30;;;;;;10564569;28;20280;-77
2022/09/14 06:37:33;;;;;;;7.20;6.60;;;20.70;50.70;;;;;;10560823;28;20284;-77
2022/09/14 06:42:36;;;;;;;8.50;7.00;;;20.70;49.40;;;;;;10559169;28;20226;-77
2022/09/14 06:47:41;;;;;;;7.87;7.13;;;20.80;49.50;;;;;;10558664;28;20229;-76
2022/09/14 06:52:44;;;;;;;7.87;7.27;;;20.80;50.50;;;;;;10561967;28;20280;-77
2022/09/14 06:57:48;;;;;;;8.17;7.47;;;20.80;49.90;;;;;;10561200;28;20227;-76
2022/09/14 07:02:54;;;;;;;8.47;7.70;;;20.90;50.50;;;;;;10563768;28;21274;-77
2022/09/14 07:07:58;;;;;;;8.10;7.43;;;20.90;51.20;;;;;;10556402;28;20226;-77
2022/09/14 07:13:01;;;;;;;8.40;7.60;;;20.90;50.40;;;;;;10554755;28;20233;-77
2022/09/14 07:18:05;;;;;;;8.20;7.50;;;20.90;50.80;;;;;;10562183;28;20245;-77
2022/09/14 07:23:11;;;;;;;7.53;6.90;;;20.90;51.70;;;;;;10560815;28;20229;-79
2022/09/14 07:28:14;;;;;;;6.97;6.27;;;20.90;51.00;;;;;;10554013;28;20223;-76
2022/09/14 07:33:19;;;;;;;6.77;6.20;;;20.90;51.50;;;;;;10555451;28;20256;-76
2022/09/14 07:38:22;;;;;;;6.10;5.57;;;21.00;52.70;;;;;;10557051;28;20279;-77
2022/09/14 07:43:48;;;;;;;5.40;4.90;;;21.10;52.30;;;;;;10554094;28;20647;-76
2022/09/14 07:48:56;;;;;;;5.77;5.37;;;21.20;53.70;;;;;;10559765;28;20227;-76
2022/09/14 07:54:00;;;;;;;5.00;4.50;;;21.30;54.60;;;;;;10559166;28;20218;-76
2022/09/14 07:59:04;;;;;;;3.30;3.00;;;21.50;53.70;;;;;;10558370;28;20230;-75
2022/09/14 08:04:28;;;;;;;3.27;2.93;;;21.70;54.40;;;;;;10556645;28;20295;-77
2022/09/14 08:09:32;;;;;;;4.17;2.50;;;21.90;55.10;;;;;;10552083;28;20691;-75
2022/09/14 08:14:35;;;;;;;2.80;2.60;;;22.10;54.00;;;;;;10559639;28;20267;-75
2022/09/14 08:19:40;;;;;;;3.13;2.93;;;22.30;54.10;;;;;;10555495;28;20230;-75
2022/09/14 08:24:43;;;;;;;5.13;3.30;;;22.50;55.20;;;;;;10553387;28;20280;-74
2022/09/14 08:29:47;;;;;;;3.17;2.97;;;22.70;53.70;;;;;;10551797;28;20253;-76
2022/09/14 08:34:51;;;;;;;3.13;2.90;;;22.80;53.30;;;;;;10555867;28;20728;-76
2022/09/14 08:39:54;;;;;;;3.87;2.60;;;23.00;54.10;;;;;;10558503;28;20227;-76
2022/09/14 08:45:01;;;;;;;2.90;2.70;;;23.20;53.30;;;;;;10556129;28;20309;-76
2022/09/14 08:50:16;;;;;;;9.77;8.77;;;23.30;53.70;;;;;;10552434;28;20672;-77
2022/09/14 08:55:33;;;;;;;21.43;18.37;;;23.50;53.90;;;;;;10556486;28;20233;-76
2022/09/14 09:00:42;;;;;;;8.83;7.93;;;23.60;54.50;;;;;;10552845;28;20222;-76
2022/09/14 09:05:53;;;;;;;7.87;7.07;;;23.80;54.30;;;;;;10557095;28;20239;-76
2022/09/14 09:10:59;;;;;;;6.47;5.87;;;24.00;54.40;;;;;;10558830;27;21147;-75
2022/09/14 09:16:06;;;;;;;3.90;3.50;;;24.30;53.50;;;;;;10561936;28;20227;-76
2022/09/14 09:21:15;;;;;;;4.90;4.37;;;24.40;52.60;;;;;;10559361;28;20288;-77
2022/09/14 09:26:27;;;;;;;6.10;4.20;;;24.60;52.80;;;;;;10560180;28;20255;-76
2022/09/14 09:31:34;;;;;;;2.60;2.40;;;24.70;52.90;;;;;;10563127;28;20252;-76
2022/09/14 09:36:41;;;;;;;2.10;1.90;;;24.90;52.40;;;;;;10564743;28;20226;-77
2022/09/14 09:41:48;;;;;;;2.63;2.10;;;25.00;52.20;;;;;;10557339;28;20223;-77
2022/09/14 09:46:54;;;;;;;2.20;2.00;;;25.20;52.00;;;;;;10562100;28;20272;-76
2022/09/14 09:52:07;;;;;;;2.40;2.20;;;25.30;51.20;;;;;;10560687;27;20597;-76
2022/09/14 09:57:21;;;;;;;2.37;2.17;;;25.50;51.70;;;;;;10558693;28;20227;-77
2022/09/14 10:02:28;;;;;;;1.93;1.83;;;25.70;50.20;;;;;;10561527;28;20226;-75
2022/09/14 10:07:34;;;;;;;3.57;1.97;;;25.80;49.90;;;;;;10552846;28;20699;-76
2022/09/14 10:12:44;;;;;;;3.00;1.90;;;26.00;49.50;;;;;;10558545;28;20231;-77
2022/09/14 10:18:06;;;;;;;3.43;2.10;;;26.20;48.90;;;;;;10555898;28;20879;-77
2022/09/14 10:23:35;;;;;;;2.17;2.03;;;26.40;47.70;;;;;;10566710;28;20276;-78
2022/09/14 10:28:39;;;;;;;2.30;2.00;;;26.50;48.20;;;;;;10570739;28;20227;-81
2022/09/14 10:33:43;;;;;;;2.63;2.20;;;26.50;47.40;;;;;;10582844;28;20247;-78
2022/09/14 10:38:51;;;;;;;2.80;2.00;;;26.70;47.60;;;;;;10586218;28;20479;-81
2022/09/14 10:44:30;;;;;;;2.20;2.00;;;26.90;45.50;;;;;;10561522;28;20773;-79
2022/09/14 10:49:46;;;;;;;2.30;2.10;;;26.90;45.50;;;;;;10582111;28;20230;-79
2022/09/14 10:55:22;;;;;;;2.53;1.97;;;27.00;45.20;;;;;;10591005;27;20230;-79
2022/09/14 11:00:27;;;;;;;2.13;1.93;;;27.10;45.40;;;;;;10595252;28;20237;-79
2022/09/14 11:05:35;;;;;;;2.37;2.17;;;27.10;45.80;;;;;;10596039;28;20279;-79
2022/09/14 11:10:51;;;;;;;2.37;1.80;;;27.20;45.90;;;;;;10594084;28;20234;-79
2022/09/14 11:16:01;;;;;;;2.90;2.10;;;27.40;44.50;;;;;;10580425;28;20226;-79
2022/09/14 11:21:15;;;;;;;1.93;1.83;;;27.50;44.20;;;;;;10586215;28;20314;-81
2022/09/14 11:26:24;;;;;;;3.17;2.27;;;27.60;43.90;;;;;;10581184;28;20234;-82
2022/09/14 11:31:32;;;;;;;2.77;1.97;;;27.70;42.70;;;;;;10574922;27;20717;-82
2022/09/14 11:36:41;;;;;;;3.23;1.90;;;27.80;42.80;;;;;;10577522;28;20227;-78
2022/09/14 11:41:52;;;;;;;2.10;1.90;;;27.90;43.60;;;;;;10578354;28;20219;-79
2022/09/14 11:47:01;;;;;;;2.27;1.90;;;28.00;42.90;;;;;;10580346;28;20242;-79
2022/09/14 11:52:13;;;;;;;2.53;2.00;;;28.20;42.50;;;;;;10579063;28;20267;-79
2022/09/14 11:57:19;;;;;;;1.97;1.87;;;28.30;41.90;;;;;;10579503;28;20309;-79
2022/09/14 12:02:47;;;;;;;3.13;1.90;;;28.40;42.40;;;;;;10582018;28;20584;-79
2022/09/14 12:08:02;;;;;;;2.57;2.07;;;28.50;42.30;;;;;;10542121;28;20258;-79
2022/09/14 12:13:20;;;;;;;1.90;1.80;;;28.60;40.40;;;;;;10579841;28;20684;-79
2022/09/14 12:18:27;;;;;;;1.90;1.67;;;28.50;39.40;;;;;;10580986;28;20226;-78
2022/09/14 12:23:41;;;;;;;1.83;1.73;;;28.50;41.10;;;;;;10582320;28;20231;-78
2022/09/14 12:28:49;;;;;;;2.97;1.83;;;28.50;40.20;;;;;;10581283;28;20218;-79
2022/09/14 12:34:18;;;;;;;2.20;1.77;;;28.40;40.00;;;;;;10579176;28;20223;-79
2022/09/14 12:39:23;;;;;;;1.97;1.80;;;28.40;40.30;;;;;;10575914;28;20217;-79
2022/09/14 12:44:33;;;;;;;2.67;2.07;;;28.40;40.20;;;;;;10584293;28;20251;-79
2022/09/14 12:49:37;;;;;;;1.97;1.87;;;28.30;39.80;;;;;;10585894;28;20219;-79
2022/09/14 12:54:51;;;;;;;3.87;2.03;;;28.20;40.80;;;;;;10583077;28;20219;-78
2022/09/14 13:00:03;;;;;;;1.60;1.50;;;28.30;39.70;;;;;;10580684;28;20320;-79
2022/09/14 13:05:13;;;;;;;1.83;1.73;;;28.20;39.40;;;;;;10582965;28;20280;-79
2022/09/14 13:10:19;;;;;;;2.00;1.70;;;28.20;40.40;;;;;;10583954;28;20662;-79
2022/09/14 13:15:27;;;;;;;3.43;1.73;;;28.10;40.10;;;;;;10582561;28;20238;-78
2022/09/14 13:20:32;;;;;;;2.33;1.77;;;28.10;40.30;;;;;;10584279;28;20221;-78
2022/09/14 13:25:38;;;;;;;4.20;1.93;;;28.20;40.60;;;;;;10583156;28;20304;-78
2022/09/14 13:30:43;;;;;;;1.77;1.67;;;28.20;40.40;;;;;;10583579;28;20218;-79
2022/09/14 13:35:50;;;;;;;1.70;1.60;;;28.20;40.20;;;;;;10582214;28;20225;-78
2022/09/14 13:40:56;;;;;;;2.00;1.73;;;28.20;39.90;;;;;;10578041;28;20230;-78
2022/09/14 13:46:01;;;;;;;2.20;2.00;;;28.20;40.20;;;;;;10575139;28;20227;-78
2022/09/14 13:51:06;;;;;;;2.23;1.80;;;28.20;39.90;;;;;;10572761;28;20238;-78
2022/09/14 13:56:20;;;;;;;2.40;1.90;;;28.20;40.50;;;;;;10576919;28;20234;-78
2022/09/14 14:01:27;;;;;;;2.23;1.97;;;28.20;40.20;;;;;;10575641;28;20222;-77
2022/09/14 14:06:33;;;;;;;3.43;1.97;;;28.30;39.70;;;;;;10578163;28;20234;-77
2022/09/14 14:11:39;;;;;;;3.60;1.87;;;28.30;40.00;;;;;;10580277;28;20226;-77
2022/09/14 14:17:10;;;;;;;2.87;2.10;;;28.40;40.60;;;;;;10579522;28;20256;-77
2022/09/14 14:22:19;;;;;;;2.20;2.00;;;28.40;40.10;;;;;;10579491;28;20227;-77
2022/09/14 14:27:30;;;;;;;2.00;1.90;;;28.30;40.20;;;;;;10578638;28;20242;-77
2022/09/14 14:32:34;;;;;;;3.10;2.10;;;28.30;39.60;;;;;;10576381;28;20226;-77
2022/09/14 14:37:37;;;;;;;2.00;1.80;;;28.30;39.60;;;;;;10575032;28;20231;-76
2022/09/14 14:42:41;;;;;;;2.40;2.20;;;28.20;39.90;;;;;;10574847;28;20229;-77
2022/09/14 14:47:46;;;;;;;2.27;1.90;;;28.20;39.80;;;;;;10575143;28;20707;-77
2022/09/14 14:52:50;;;;;;;2.10;1.90;;;28.20;40.00;;;;;;10583023;28;20761;-77
2022/09/14 14:57:54;;;;;;;4.03;1.97;;;28.00;39.80;;;;;;10578226;28;20231;-77
2022/09/14 15:02:58;;;;;;;2.03;1.57;;;27.70;39.80;;;;;;10555192;28;20219;-78
2022/09/14 15:08:02;;;;;;;1.43;1.10;;;27.20;40.10;;;;;;10539127;28;20236;-78
2022/09/14 15:13:06;;;;;;;2.07;1.30;;;26.60;39.70;;;;;;10543590;28;20276;-77
2022/09/14 15:18:14;;;;;;;1.90;1.33;;;26.10;40.20;;;;;;10574829;28;20231;-81
2022/09/14 15:23:17;;;;;;;3.90;1.47;;;25.60;41.30;;;;;;10572260;28;20234;-78
2022/09/14 15:28:21;;;;;;;2.57;1.40;;;25.10;41.20;;;;;;10580891;28;20227;-78
2022/09/14 15:33:26;;;;;;;1.80;1.30;;;24.70;42.30;;;;;;10579531;28;20241;-78
2022/09/14 15:38:29;;;;;;;2.50;1.40;;;24.30;43.10;;;;;;10578898;28;20711;-79
2022/09/14 15:43:32;;;;;;;1.77;1.30;;;24.00;43.00;;;;;;10554927;28;20254;-76
2022/09/14 15:48:39;;;;;;;1.30;1.20;;;23.80;43.50;;;;;;10568001;28;20222;-78
2022/09/14 15:53:44;;;;;;;3.33;1.20;;;23.60;44.20;;;;;;10563117;28;20227;-78
2022/09/14 15:58:47;;;;;;;1.90;1.30;;;23.50;44.00;;;;;;10558590;28;20804;-77
2022/09/14 16:03:56;;;;;;;1.33;1.13;;;23.50;44.30;;;;;;10555360;28;20223;-78
2022/09/14 16:09:01;;;;;;;1.73;1.17;;;23.40;45.30;;;;;;10564654;28;20222;-77
2022/09/14 16:14:05;;;;;;;2.30;1.30;;;23.30;44.90;;;;;;10562939;28;20219;-77
2022/09/14 16:19:11;;;;;;;2.87;1.60;;;23.20;45.10;;;;;;10566909;28;20741;-77
2022/09/14 16:24:16;;;;;;;2.70;1.37;;;23.10;46.10;;;;;;10578196;28;20844;-76
2022/09/14 16:29:22;;;;;;;2.20;1.50;;;23.00;46.10;;;;;;10580122;28;20714;-80
2022/09/14 16:34:29;;;;;;;2.23;1.50;;;22.90;46.50;;;;;;10573813;28;20231;-79
2022/09/14 16:39:33;;;;;;;2.20;1.40;;;22.80;47.20;;;;;;10576317;28;20242;-79
2022/09/14 16:44:37;;;;;;;2.57;1.40;;;22.80;46.60;;;;;;10571838;28;20976;-80
2022/09/14 16:49:41;;;;;;;1.40;1.30;;;22.80;46.90;;;;;;10579323;28;20219;-80
2022/09/14 16:54:44;;;;;;;3.07;1.73;;;22.80;47.40;;;;;;10573052;28;20231;-76
2022/09/14 16:59:47;;;;;;;2.33;2.23;;;22.90;46.80;;;;;;10569344;28;20229;-78
2022/09/14 17:04:52;;;;;;;2.60;1.80;;;23.00;47.00;;;;;;10578990;28;20226;-79
2022/09/14 17:09:55;;;;;;;1.90;1.80;;;23.00;47.50;;;;;;10572862;28;20227;-78
2022/09/14 17:14:58;;;;;;;2.07;1.87;;;23.00;46.80;;;;;;10578327;28;20226;-78
2022/09/14 17:20:04;;;;;;;1.80;1.70;;;23.00;46.90;;;;;;10576356;28;20211;-78
2022/09/14 17:25:08;;;;;;;2.63;1.80;;;23.00;47.70;;;;;;10579651;28;20219;-79
2022/09/14 17:30:14;;;;;;;2.20;2.00;;;23.00;47.30;;;;;;10580946;28;20227;-80
2022/09/14 17:35:19;;;;;;;2.33;2.10;;;22.90;47.00;;;;;;10578280;28;20234;-80
2022/09/14 17:40:22;;;;;;;3.43;3.13;;;22.90;47.70;;;;;;10571841;28;20683;-80
2022/09/14 17:45:25;;;;;;;3.67;3.37;;;22.90;47.20;;;;;;10567555;28;20284;-78
2022/09/14 17:50:30;;;;;;;4.43;3.40;;;22.90;47.30;;;;;;10565559;28;20238;-78
2022/09/14 17:55:33;;;;;;;5.50;4.90;;;22.80;47.80;;;;;;10564361;28;20230;-77
2022/09/14 18:00:37;;;;;;;4.10;3.70;;;22.80;47.20;;;;;;10566400;28;20234;-78
2022/09/14 18:05:41;;;;;;;3.07;2.80;;;22.80;47.20;;;;;;10570736;28;20228;-77
2022/09/14 18:10:45;;;;;;;2.40;2.13;;;22.70;47.80;;;;;;10572358;28;20650;-78
2022/09/14 18:15:48;;;;;;;1.70;1.53;;;22.70;47.40;;;;;;10545582;28;20242;-78
2022/09/14 18:20:52;;;;;;;1.30;1.20;;;22.70;47.50;;;;;;10527398;28;20223;-82
2022/09/14 18:25:56;;;;;;;1.40;1.30;;;22.60;47.70;;;;;;10524136;28;20238;-78
2022/09/14 18:31:03;;;;;;;1.30;1.20;;;22.60;47.20;;;;;;10525169;28;20703;-79
2022/09/14 18:36:09;;;;;;;1.23;1.20;;;22.60;47.90;;;;;;10523330;28;20585;-79
2022/09/14 18:41:13;;;;;;;1.27;1.00;;;22.60;47.40;;;;;;10523903;28;20220;-77
2022/09/14 18:46:17;;;;;;;1.07;0.97;;;22.70;47.10;;;;;;10533340;28;20219;-78
2022/09/14 18:51:22;;;;;;;2.07;1.13;;;22.70;46.90;;;;;;10527889;28;20231;-83
2022/09/14 18:56:26;;;;;;;1.97;1.47;;;22.60;46.90;;;;;;10518580;28;20235;-78
2022/09/14 19:01:30;;;;;;;1.77;1.27;;;22.50;46.80;;;;;;10533586;28;20234;-79
2022/09/14 19:06:36;;;;;;;2.10;1.20;;;22.50;46.80;;;;;;10536791;28;20246;-79
2022/09/14 19:11:39;;;;;;;1.63;1.43;;;22.40;47.30;;;;;;10528433;28;20254;-78
2022/09/14 19:16:42;;;;;;;2.07;1.37;;;22.30;47.00;;;;;;10528022;28;20243;-76
2022/09/14 19:21:47;;;;;;;1.63;1.47;;;22.30;47.20;;;;;;10524974;28;20231;-79
2022/09/14 19:26:51;;;;;;;1.63;1.23;;;22.20;47.70;;;;;;10521308;28;20235;-78
2022/09/14 19:31:55;;;;;;;1.43;1.33;;;22.20;47.40;;;;;;10523847;28;20227;-78
2022/09/14 19:36:59;;;;;;;1.20;1.10;;;22.20;47.30;;;;;;10510989;28;20254;-81
2022/09/14 19:42:02;;;;;;;1.30;1.10;;;22.20;47.70;;;;;;10518844;28;20246;-77
2022/09/14 19:47:05;;;;;;;2.40;1.70;;;22.10;47.30;;;;;;10517917;28;20621;-77
2022/09/14 19:52:10;;;;;;;2.30;1.57;;;22.10;47.50;;;;;;10515404;28;20220;-77
2022/09/14 19:57:13;;;;;;;2.30;1.80;;;22.10;47.80;;;;;;10511717;28;20704;-77
2022/09/14 20:02:16;;;;;;;2.03;1.70;;;22.10;47.50;;;;;;10517681;28;20268;-77
2022/09/14 20:07:21;;;;;;;1.93;1.70;;;22.10;47.30;;;;;;10515383;28;20227;-76
2022/09/14 20:12:24;;;;;;;2.20;2.00;;;22.20;47.40;;;;;;10505491;28;20291;-77
2022/09/14 20:17:27;;;;;;;2.33;1.80;;;22.10;46.80;;;;;;10551025;28;20750;-77
2022/09/14 20:22:32;;;;;;;2.73;1.90;;;22.10;46.80;;;;;;10552636;28;20270;-77
2022/09/14 20:27:35;;;;;;;3.33;2.00;;;22.10;47.30;;;;;;10552061;28;20591;-76
2022/09/14 20:32:38;;;;;;;3.00;2.53;;;22.00;46.90;;;;;;10553577;28;20234;-77
2022/09/14 20:37:43;;;;;;;3.03;2.40;;;22.00;46.90;;;;;;10548787;28;20235;-76
2022/09/14 20:42:46;;;;;;;2.77;1.90;;;22.00;47.00;;;;;;10552463;28;20224;-77
2022/09/14 20:47:49;;;;;;;2.70;2.27;;;22.00;46.70;;;;;;10552383;28;20250;-77
2022/09/14 20:52:54;;;;;;;2.30;2.10;;;22.00;46.70;;;;;;10553015;28;20231;-77
2022/09/14 20:57:57;;;;;;;2.20;2.00;;;21.90;46.90;;;;;;10548964;28;20230;-77
2022/09/14 21:03:00;;;;;;;2.03;1.83;;;21.90;46.90;;;;;;10548962;28;20219;-76
2022/09/14 21:08:06;;;;;;;2.00;1.90;;;21.90;46.70;;;;;;10563043;28;20219;-77
2022/09/14 21:13:09;;;;;;;4.07;2.20;;;21.90;46.50;;;;;;10552475;28;20795;-77
2022/09/14 21:18:12;;;;;;;4.90;2.20;;;21.90;46.20;;;;;;10518620;28;20231;-76
2022/09/14 21:23:21;;;;;;;2.63;2.30;;;21.80;46.20;;;;;;10519609;28;20234;-76
2022/09/14 21:28:25;;;;;;;3.33;2.50;;;21.70;46.60;;;;;;10517361;28;20231;-77
2022/09/14 21:33:28;;;;;;;3.63;2.10;;;21.50;46.60;;;;;;10516634;28;20259;-76
2022/09/14 21:38:32;;;;;;;2.60;2.30;;;21.40;46.80;;;;;;10513519;28;20878;-77
2022/09/14 21:43:36;;;;;;;2.30;2.10;;;21.30;47.50;;;;;;10521803;28;20239;-77
2022/09/14 21:48:40;;;;;;;3.33;2.20;;;21.30;47.60;;;;;;10514144;28;20278;-76
2022/09/14 21:53:46;;;;;;;2.93;1.87;;;21.30;47.90;;;;;;10513475;28;20238;-77
2022/09/14 21:58:50;;;;;;;3.37;1.70;;;21.30;48.80;;;;;;10515712;28;20240;-77
2022/09/14 22:03:54;;;;;;;3.43;1.90;;;21.30;48.20;;;;;;10517571;28;20250;-76
2022/09/14 22:09:00;;;;;;;2.63;1.73;;;21.30;48.30;;;;;;10514439;28;20285;-77
2022/09/14 22:14:06;;;;;;;2.20;1.73;;;21.40;48.70;;;;;;10513776;28;20273;-76
2022/09/14 22:19:14;;;;;;;4.10;1.90;;;21.30;48.50;;;;;;10548386;28;20227;-76
2022/09/14 22:24:21;;;;;;;4.73;2.27;;;21.20;48.90;;;;;;10552305;28;20234;-76
2022/09/14 22:29:25;;;;;;;3.87;1.77;;;21.20;49.00;;;;;;10551579;27;20223;-76
2022/09/14 22:34:28;;;;;;;3.27;1.90;;;21.10;48.40;;;;;;10541991;28;20234;-76
2022/09/14 22:39:33;;;;;;;2.80;2.20;;;21.00;48.90;;;;;;10545806;28;20231;-76
2022/09/14 22:44:36;;;;;;;3.03;2.00;;;20.90;49.50;;;;;;10551946;27;20235;-76
2022/09/14 22:49:40;;;;;;;2.30;2.10;;;20.90;49.00;;;;;;10555413;28;20219;-77
2022/09/14 22:54:44;;;;;;;4.20;2.20;;;20.90;49.00;;;;;;10553860;28;20240;-76
2022/09/14 22:59:47;;;;;;;2.50;2.30;;;21.00;49.60;;;;;;10558914;28;20292;-77
2022/09/14 23:04:50;;;;;;;2.67;2.17;;;21.00;49.20;;;;;;10553170;28;20231;-77
2022/09/14 23:09:55;;;;;;;3.30;2.10;;;21.00;48.90;;;;;;10559636;28;20223;-77
2022/09/14 23:14:58;;;;;;;3.63;2.20;;;21.10;49.40;;;;;;10554573;28;20231;-77
2022/09/14 23:20:02;;;;;;;3.97;2.30;;;21.00;48.80;;;;;;10551429;28;20760;-77
2022/09/14 23:25:08;;;;;;;2.53;2.03;;;21.00;49.10;;;;;;10549611;28;20652;-77
2022/09/14 23:30:13;;;;;;;2.87;2.50;;;20.90;49.50;;;;;;10549339;28;20227;-77
2022/09/14 23:35:16;;;;;;;2.40;2.20;;;20.90;49.50;;;;;;10558439;27;20231;-77
2022/09/14 23:40:21;;;;;;;5.50;2.50;;;20.80;49.40;;;;;;10548346;28;20276;-76
2022/09/14 23:45:24;;;;;;;3.30;2.50;;;20.70;49.40;;;;;;10546929;28;20222;-76
2022/09/14 23:50:28;;;;;;;3.87;2.40;;;20.70;49.40;;;;;;10552960;28;20229;-77
2022/09/14 23:55:32;;;;;;;3.70;2.70;;;20.60;49.30;;;;;;10541939;28;20280;-77
